createdAt,value
2022-08-05T00:01:27.623Z,4.35
2022-08-05T00:03:55.013Z,5.18
2022-08-05T00:06:30.791Z,4.10
2022-08-05T00:09:00.359Z,4.22
2022-08-05T00:11:30.249Z,5.57
2022-08-05T00:14:01.427Z,3.95
2022-08-05T00:16:35.495Z,3.95
2022-08-05T00:19:03.035Z,4.55
2022-08-05T00:21:30.571Z,4.13
2022-08-05T00:24:10.442Z,4.15
2022-08-05T00:26:37.841Z,3.83
2022-08-05T00:29:04.173Z,4.38
2022-08-05T00:31:53.216Z,4.15
2022-08-05T00:34:54.484Z,5.07
2022-08-05T00:37:12.356Z,4.68
2022-08-05T00:39:44.191Z,4.60
2022-08-05T00:42:31.846Z,4.97
2022-08-05T00:44:58.835Z,4.25
2022-08-05T00:47:25.700Z,4.47
2022-08-05T00:49:52.024Z,4.30
2022-08-05T00:52:28.705Z,4.75
2022-08-05T00:54:55.263Z,5.40
2022-08-05T00:57:22.951Z,5.20
2022-08-05T00:59:52.002Z,5.55
2022-08-05T01:02:18.420Z,5.38
2022-08-05T01:04:44.750Z,5.07
2022-08-05T01:07:17.939Z,4.75
2022-08-05T01:09:44.483Z,4.85
2022-08-05T01:12:18.580Z,5.43
2022-08-05T01:15:17.170Z,4.97
2022-08-05T01:18:03.320Z,4.82
2022-08-05T01:20:48.083Z,4.20
2022-08-05T01:23:24.232Z,4.57
2022-08-05T01:26:07.451Z,5.03
2022-08-05T01:28:39.558Z,5.03
2022-08-05T01:31:13.425Z,4.30
2022-08-05T01:33:43.525Z,5.47
2022-08-05T01:36:16.690Z,4.35
2022-08-05T01:38:43.887Z,4.28
2022-08-05T01:41:12.601Z,4.22
2022-08-05T01:43:40.967Z,3.92
2022-08-05T01:46:16.311Z,4.22
2022-08-05T01:48:54.599Z,4.32
2022-08-05T01:51:21.813Z,4.43
2022-08-05T01:53:56.928Z,4.30
2022-08-05T01:58:12.247Z,4.88
2022-08-05T01:59:15.076Z,4.38
2022-08-05T02:01:43.016Z,4.85
2022-08-05T02:04:10.187Z,4.40
2022-08-05T02:06:38.830Z,5.15
2022-08-05T02:09:06.459Z,4.72
2022-08-05T02:11:41.998Z,4.43
2022-08-05T02:14:12.179Z,4.78
2022-08-05T02:16:39.088Z,5.35
2022-08-05T02:19:11.654Z,5.75
2022-08-05T02:21:49.075Z,4.43
2022-08-05T02:24:18.244Z,5.32
2022-08-05T02:26:54.684Z,5.13
2022-08-05T02:29:26.099Z,5.35
2022-08-05T02:32:10.385Z,5.28
2022-08-05T02:34:37.596Z,5.53
2022-08-05T02:37:09.108Z,4.93
2022-08-05T02:39:41.205Z,5.15
2022-08-05T02:42:08.500Z,5.38
2022-08-05T02:44:36.750Z,5.70
2022-08-05T02:47:08.828Z,4.70
2022-08-05T02:49:40.566Z,4.45
2022-08-05T02:52:09.145Z,4.50
2022-08-05T02:54:37.403Z,4.20
2022-08-05T02:57:10.090Z,5.10
2022-08-05T02:59:54.829Z,4.65
2022-08-05T03:02:24.286Z,4.53
2022-08-05T03:04:54.859Z,5.15
2022-08-05T03:07:40.612Z,4.75
2022-08-05T03:10:08.237Z,5.43
2022-08-05T03:12:38.223Z,5.07
2022-08-05T03:15:09.212Z,4.53
2022-08-05T03:17:41.529Z,5.13
2022-08-05T03:20:08.861Z,5.15
2022-08-05T03:22:36.483Z,5.18
2022-08-05T03:25:18.814Z,4.20
2022-08-05T03:27:59.731Z,6.18
2022-08-05T03:30:30.169Z,5.10
2022-08-05T03:33:00.984Z,5.00
2022-08-05T03:35:28.151Z,4.25
2022-08-05T03:37:58.565Z,5.25
2022-08-05T03:40:32.037Z,4.88
2022-08-05T03:42:58.937Z,4.68
2022-08-05T03:45:28.963Z,5.60
2022-08-05T03:47:57.180Z,4.72
2022-08-05T03:50:25.805Z,5.15
2022-08-05T03:55:51.094Z,5.28
2022-08-05T03:56:11.707Z,4.78
2022-08-05T03:58:41.117Z,4.35
2022-08-05T04:01:11.138Z,5.53
2022-08-05T04:03:38.936Z,5.32
2022-08-05T04:06:05.774Z,6.18
2022-08-05T04:08:36.714Z,5.65
2022-08-05T04:11:04.039Z,5.57
2022-08-05T04:13:49.863Z,5.72
2022-08-05T04:16:25.196Z,4.75
2022-08-05T04:18:57.934Z,4.60
2022-08-05T04:22:10.079Z,5.35
2022-08-05T04:24:19.434Z,4.70
2022-08-05T04:26:49.035Z,4.05
2022-08-05T04:29:15.327Z,4.57
2022-08-05T04:31:41.602Z,4.30
2022-08-05T04:34:31.944Z,4.60
2022-08-05T04:36:55.685Z,4.57
2022-08-05T04:39:22.606Z,5.32
2022-08-05T04:41:50.943Z,5.20
2022-08-05T04:44:24.453Z,4.65
2022-08-05T04:46:56.390Z,4.70
2022-08-05T04:49:24.602Z,5.20
2022-08-05T04:52:04.712Z,4.93
2022-08-05T04:54:34.009Z,5.53
2022-08-05T04:57:00.294Z,5.25
2022-08-05T04:59:36.829Z,5.35
2022-08-05T05:02:37.136Z,5.32
2022-08-05T05:04:52.069Z,4.68
2022-08-05T05:07:18.500Z,4.32
2022-08-05T05:09:55.886Z,3.83
2022-08-05T05:12:24.228Z,4.15
2022-08-05T05:14:53.910Z,4.30
2022-08-05T05:17:24.287Z,4.75
2022-08-05T05:19:55.180Z,4.05
2022-08-05T05:22:26.562Z,3.72
2022-08-05T05:24:59.934Z,4.07
2022-08-05T05:27:41.466Z,5.60
2022-08-05T05:30:29.865Z,5.25
2022-08-05T05:33:00.802Z,4.45
2022-08-05T05:35:34.504Z,4.65
2022-08-05T05:38:05.580Z,4.80
2022-08-05T05:40:34.350Z,4.18
2022-08-05T05:43:02.081Z,4.22
2022-08-05T05:45:28.948Z,4.70
2022-08-05T05:48:05.438Z,4.57
2022-08-05T05:50:35.681Z,4.97
2022-08-05T05:53:21.409Z,4.03
2022-08-05T05:55:51.620Z,4.65
2022-08-05T05:58:31.775Z,4.82
2022-08-05T06:01:12.297Z,4.15
2022-08-05T06:04:00.376Z,5.75
2022-08-05T06:06:27.835Z,5.03
2022-08-05T06:08:57.643Z,5.22
2022-08-05T06:11:23.968Z,4.70
2022-08-05T06:13:54.035Z,4.15
2022-08-05T06:16:29.865Z,4.60
2022-08-05T06:18:59.953Z,4.40
2022-08-05T06:21:37.641Z,4.70
2022-08-05T06:24:06.075Z,4.13
2022-08-05T06:26:35.108Z,4.10
2022-08-05T06:29:03.662Z,4.40
2022-08-05T06:31:48.749Z,4.47
2022-08-05T06:34:19.819Z,4.95
2022-08-05T06:36:57.173Z,4.65
2022-08-05T06:39:27.197Z,3.85
2022-08-05T06:41:54.563Z,4.32
2022-08-05T06:44:21.982Z,4.90
2022-08-05T06:46:51.091Z,4.70
2022-08-05T06:49:17.657Z,4.60
2022-08-05T06:51:45.360Z,4.20
2022-08-05T06:54:12.017Z,4.40
2022-08-05T06:56:54.401Z,4.70
2022-08-05T06:59:21.587Z,3.88
2022-08-05T07:01:48.807Z,5.35
2022-08-05T07:04:19.482Z,4.43
2022-08-05T07:06:45.871Z,4.32
2022-08-05T07:09:16.874Z,3.90
2022-08-05T07:11:51.417Z,4.63
2022-08-05T07:14:37.503Z,4.10
2022-08-05T07:18:01.691Z,4.00
2022-08-05T07:22:38.737Z,4.22
2022-08-05T07:25:22.481Z,4.05
2022-08-05T07:27:56.554Z,3.65
2022-08-05T07:30:31.742Z,3.72
2022-08-05T07:32:59.525Z,3.87
2022-08-05T07:36:04.593Z,3.17
2022-08-05T07:38:32.250Z,3.72
2022-08-05T07:41:01.454Z,3.40
2022-08-05T07:43:43.705Z,3.80
2022-08-05T07:46:18.886Z,3.30
2022-08-05T07:49:02.857Z,3.30
2022-08-05T07:51:36.901Z,3.13
2022-08-05T07:54:08.228Z,3.10
2022-08-05T07:56:38.941Z,2.92
2022-08-05T07:59:23.286Z,3.05
2022-08-05T08:02:05.323Z,3.78
2022-08-05T08:04:37.467Z,3.55
2022-08-05T08:07:06.976Z,4.78
2022-08-05T08:09:33.891Z,4.78
2022-08-05T08:12:06.214Z,4.53
2022-08-05T08:14:37.834Z,4.88
2022-08-05T08:17:10.670Z,5.50
2022-08-05T08:20:22.990Z,5.20
2022-08-05T08:22:29.107Z,5.07
2022-08-05T08:24:55.533Z,4.45
2022-08-05T08:27:38.004Z,5.50
2022-08-05T08:30:29.500Z,6.07
2022-08-05T08:32:53.372Z,5.00
2022-08-05T08:35:20.879Z,6.72
2022-08-05T08:37:54.449Z,6.38
2022-08-05T08:40:23.072Z,5.07
2022-08-05T08:42:52.717Z,5.38
2022-08-05T08:45:27.252Z,6.55
2022-08-05T08:48:12.457Z,4.82
2022-08-05T08:51:22.319Z,4.30
2022-08-05T08:53:35.379Z,5.90
2022-08-05T08:56:05.832Z,5.45
2022-08-05T08:58:37.633Z,6.13
2022-08-05T09:01:11.411Z,5.80
2022-08-05T09:03:45.629Z,5.63
2022-08-05T09:06:17.231Z,6.03
2022-08-05T09:08:46.811Z,4.50
2022-08-05T09:11:13.987Z,3.38
2022-08-05T09:14:09.209Z,2.97
2022-08-05T09:16:27.475Z,3.20
2022-08-05T09:18:55.452Z,3.20
2022-08-05T09:22:23.392Z,3.08
2022-08-05T09:24:10.296Z,2.97
2022-08-05T09:26:36.841Z,2.90
2022-08-05T09:29:05.770Z,2.80
2022-08-05T09:32:39.322Z,2.78
2022-08-05T09:34:22.263Z,2.70
2022-08-05T09:36:54.382Z,2.47
2022-08-05T09:39:27.742Z,2.40
2022-08-05T09:42:08.508Z,2.80
2022-08-05T09:44:41.804Z,2.65
2022-08-05T09:47:10.397Z,2.03
2022-08-05T09:50:01.027Z,2.25
2022-08-05T09:52:30.307Z,2.13
2022-08-05T09:55:55.278Z,3.33
2022-08-05T09:57:48.764Z,2.80
2022-08-05T10:00:19.198Z,2.13
2022-08-05T10:02:47.215Z,2.95
2022-08-05T10:05:15.188Z,2.50
2022-08-05T10:08:10.884Z,2.80
2022-08-05T10:10:44.263Z,2.17
2022-08-05T10:13:11.676Z,2.03
2022-08-05T10:15:41.579Z,2.55
2022-08-05T10:18:16.898Z,1.77
2022-08-05T10:20:56.883Z,2.13
2022-08-05T10:23:55.687Z,2.17
2022-08-05T10:26:24.322Z,2.58
2022-08-05T10:28:58.948Z,2.13
2022-08-05T10:32:55.765Z,2.42
2022-08-05T10:34:11.610Z,2.47
2022-08-05T10:36:38.439Z,2.13
2022-08-05T10:39:10.556Z,1.92
2022-08-05T10:42:00.477Z,2.10
2022-08-05T10:44:28.009Z,2.10
2022-08-05T10:46:56.314Z,2.35
2022-08-05T10:49:26.978Z,1.90
2022-08-05T10:52:00.263Z,2.33
2022-08-05T10:54:56.508Z,2.03
2022-08-05T10:57:30.975Z,2.40
2022-08-05T11:00:19.098Z,2.33
2022-08-05T11:03:25.730Z,2.58
2022-08-05T11:06:08.700Z,2.35
2022-08-05T11:09:02.549Z,2.42
2022-08-05T11:11:44.321Z,2.97
2022-08-05T11:14:12.066Z,2.20
2022-08-05T11:16:47.686Z,2.53
2022-08-05T11:20:10.612Z,2.20
2022-08-05T11:22:32.472Z,2.08
2022-08-05T11:26:05.698Z,2.47
2022-08-05T11:28:16.970Z,2.33
2022-08-05T11:31:09.965Z,2.75
2022-08-05T11:33:48.450Z,2.42
2022-08-05T11:36:16.944Z,2.13
2022-08-05T11:39:01.319Z,2.25
2022-08-05T11:41:54.505Z,2.50
2022-08-05T11:44:40.684Z,2.40
2022-08-05T11:47:11.810Z,2.15
2022-08-05T11:49:43.052Z,2.00
2022-08-05T11:52:11.704Z,2.22
2022-08-05T11:54:40.319Z,2.33
2022-08-05T11:57:24.772Z,2.50
2022-08-05T11:59:53.017Z,2.28
2022-08-05T12:02:31.881Z,2.28
2022-08-05T12:05:00.145Z,2.67
2022-08-05T12:08:08.073Z,2.20
2022-08-05T12:10:21.363Z,2.10
2022-08-05T12:12:59.432Z,1.95
2022-08-05T12:15:38.185Z,2.30
2022-08-05T12:18:10.525Z,2.25
2022-08-05T12:20:38.625Z,2.00
2022-08-05T12:23:11.619Z,2.30
2022-08-05T12:25:50.853Z,2.45
2022-08-05T12:28:37.048Z,2.22
2022-08-05T12:31:04.836Z,2.10
2022-08-05T12:33:36.709Z,2.42
2022-08-05T12:36:07.931Z,2.30
2022-08-05T12:38:36.131Z,2.30
2022-08-05T12:41:03.075Z,2.22
2022-08-05T12:43:32.180Z,1.83
2022-08-05T12:45:58.757Z,1.85
2022-08-05T12:48:32.509Z,2.47
2022-08-05T12:52:09.897Z,2.22
2022-08-05T12:54:02.727Z,2.80
2022-08-05T12:56:35.308Z,2.50
2022-08-05T12:59:27.574Z,2.55
2022-08-05T13:02:10.074Z,2.47
2022-08-05T13:04:41.878Z,5.35
2022-08-05T13:07:54.749Z,2.33
2022-08-05T13:10:12.535Z,2.35
2022-08-05T13:12:42.664Z,2.08
2022-08-05T13:15:35.895Z,6.03
2022-08-05T13:18:08.587Z,2.17
2022-08-05T13:20:35.241Z,2.35
2022-08-05T13:23:07.301Z,2.08
2022-08-05T13:25:52.016Z,1.98
2022-08-05T13:28:21.840Z,2.00
2022-08-05T13:30:48.708Z,1.92
2022-08-05T13:34:23.515Z,1.95
2022-08-05T13:36:05.230Z,2.17
2022-08-05T13:38:36.325Z,1.77
2022-08-05T13:41:05.157Z,2.50
2022-08-05T13:43:45.475Z,1.88
2022-08-05T13:46:30.788Z,3.90
2022-08-05T13:49:10.175Z,2.40
2022-08-05T13:51:40.843Z,1.70
2022-08-05T13:54:12.397Z,2.13
2022-08-05T13:56:39.964Z,2.15
2022-08-05T13:59:19.556Z,2.60
2022-08-05T14:01:58.038Z,2.50
2022-08-05T14:04:51.831Z,3.10
2022-08-05T14:07:25.525Z,3.03
2022-08-05T14:10:13.538Z,2.90
2022-08-05T14:12:42.906Z,2.08
2022-08-05T14:18:01.792Z,2.10
2022-08-05T14:20:30.777Z,2.20
2022-08-05T14:23:00.194Z,3.90
2022-08-05T14:25:28.126Z,2.78
2022-08-05T14:27:54.962Z,2.17
2022-08-05T14:30:21.370Z,2.15
2022-08-05T14:32:48.682Z,2.22
2022-08-05T14:35:15.040Z,2.08
2022-08-05T14:37:45.693Z,2.30
2022-08-05T14:40:17.010Z,2.20
2022-08-05T14:42:43.853Z,3.30
2022-08-05T14:45:10.463Z,2.38
2022-08-05T14:48:05.663Z,1.90
2022-08-05T14:50:23.264Z,1.95
2022-08-05T14:52:57.083Z,2.20
2022-08-05T14:55:25.463Z,2.10
2022-08-05T14:57:54.390Z,2.08
2022-08-05T15:00:28.206Z,1.88
2022-08-05T15:02:56.247Z,1.90
2022-08-05T15:05:30.127Z,2.47
2022-08-05T15:08:15.815Z,2.08
2022-08-05T15:10:43.450Z,2.27
2022-08-05T15:13:12.578Z,2.10
2022-08-05T15:15:54.472Z,2.97
2022-08-05T15:18:22.679Z,2.25
2022-08-05T15:20:49.618Z,2.42
2022-08-05T15:23:17.288Z,2.30
2022-08-05T15:25:52.933Z,2.53
2022-08-05T15:28:27.321Z,2.17
2022-08-05T15:30:54.406Z,2.28
2022-08-05T15:34:04.111Z,2.30
2022-08-05T15:36:09.043Z,2.50
2022-08-05T15:38:44.722Z,2.17
2022-08-05T15:41:22.917Z,2.78
2022-08-05T15:43:50.754Z,2.70
2022-08-05T15:46:19.098Z,4.38
2022-08-05T15:48:52.718Z,2.67
2022-08-05T15:52:04.416Z,2.53
2022-08-05T15:54:15.757Z,2.60
2022-08-05T15:56:42.208Z,2.10
2022-08-05T15:59:09.879Z,7.80
2022-08-05T16:01:52.240Z,2.75
2022-08-05T16:04:19.751Z,2.60
2022-08-05T16:06:46.092Z,3.00
2022-08-05T16:09:12.394Z,2.33
2022-08-05T16:11:42.952Z,2.50
2022-08-05T16:14:09.941Z,2.40
2022-08-05T16:16:43.885Z,2.20
2022-08-05T16:19:19.131Z,2.58
2022-08-05T16:22:02.594Z,2.17
2022-08-05T16:24:40.461Z,2.00
2022-08-05T16:27:08.436Z,2.55
2022-08-05T16:29:37.103Z,2.47
2022-08-05T16:32:04.630Z,2.55
2022-08-05T16:34:31.009Z,2.35
2022-08-05T16:36:57.387Z,2.15
2022-08-05T16:40:06.669Z,2.85
2022-08-05T16:42:14.197Z,2.30
2022-08-05T16:44:44.295Z,2.70
2022-08-05T16:47:29.093Z,2.92
2022-08-05T16:50:02.600Z,2.80
2022-08-05T16:52:33.341Z,2.30
2022-08-05T16:55:00.147Z,2.40
2022-08-05T16:57:42.936Z,3.03
2022-08-05T17:00:14.145Z,2.85
2022-08-05T17:02:52.211Z,2.30
2022-08-05T17:05:18.638Z,2.70
2022-08-05T17:07:54.704Z,2.47
2022-08-05T17:10:21.455Z,2.95
2022-08-05T17:12:54.739Z,2.25
2022-08-05T17:15:21.262Z,2.20
2022-08-05T17:17:54.531Z,2.30
2022-08-05T17:20:21.816Z,2.57
2022-08-05T17:22:55.577Z,3.20
2022-08-05T17:25:40.153Z,3.13
2022-08-05T17:28:07.771Z,2.20
2022-08-05T17:30:42.490Z,2.22
2022-08-05T17:33:17.169Z,2.25
2022-08-05T17:36:07.300Z,2.45
2022-08-05T17:38:29.949Z,2.47
2022-08-05T17:40:58.616Z,3.25
2022-08-05T17:43:47.025Z,2.50
2022-08-05T17:46:12.551Z,2.20
2022-08-05T17:48:39.992Z,2.75
2022-08-05T17:51:09.615Z,2.58
2022-08-05T17:53:36.086Z,2.50
2022-08-05T17:56:04.500Z,2.47
2022-08-05T17:58:32.619Z,2.72
2022-08-05T18:00:59.398Z,3.00
2022-08-05T18:03:58.407Z,3.00
2022-08-05T18:06:15.133Z,2.05
2022-08-05T18:08:45.003Z,2.75
2022-08-05T18:11:23.161Z,2.10
2022-08-05T18:13:51.448Z,2.60
2022-08-05T18:16:20.444Z,2.80
2022-08-05T18:18:48.075Z,2.70
2022-08-05T18:21:19.665Z,2.65
2022-08-05T18:23:47.803Z,2.30
2022-08-05T18:26:14.612Z,2.92
2022-08-05T18:28:46.372Z,2.55
2022-08-05T18:31:13.227Z,2.30
2022-08-05T18:33:47.127Z,2.58
2022-08-05T18:36:16.856Z,2.90
2022-08-05T18:38:45.621Z,2.88
2022-08-05T18:41:55.688Z,2.40
2022-08-05T18:44:06.361Z,2.55
2022-08-05T18:46:34.206Z,2.20
2022-08-05T18:49:20.557Z,2.63
2022-08-05T18:52:08.463Z,3.05
2022-08-05T18:54:35.035Z,3.20
2022-08-05T18:57:01.655Z,3.47
2022-08-05T18:59:42.693Z,2.50
2022-08-05T19:02:28.573Z,2.60
2022-08-05T19:05:03.012Z,2.80
2022-08-05T19:07:46.097Z,2.67
2022-08-05T19:10:12.796Z,2.75
2022-08-05T19:12:40.060Z,2.80
2022-08-05T19:15:06.922Z,3.15
2022-08-05T19:18:09.762Z,3.13
2022-08-05T19:23:03.344Z,2.72
2022-08-05T19:25:39.046Z,2.50
2022-08-05T19:28:09.939Z,2.70
2022-08-05T19:30:36.373Z,4.03
2022-08-05T19:33:04.399Z,3.28
2022-08-05T19:35:56.389Z,3.15
2022-08-05T19:38:24.064Z,3.70
2022-08-05T19:40:53.062Z,3.08
2022-08-05T19:43:24.434Z,3.20
2022-08-05T19:46:06.117Z,2.95
2022-08-05T19:48:43.352Z,2.95
2022-08-05T19:52:05.948Z,3.90
2022-08-05T19:54:04.002Z,3.58
2022-08-05T19:56:34.689Z,2.95
2022-08-05T19:59:51.085Z,2.95
2022-08-05T20:01:47.763Z,4.03
2022-08-05T20:04:14.335Z,4.80
2022-08-05T20:06:46.558Z,3.65
2022-08-05T20:09:14.077Z,4.43
2022-08-05T20:11:40.755Z,2.90
2022-08-05T20:14:16.551Z,3.30
2022-08-05T20:16:46.429Z,3.40
2022-08-05T20:19:13.415Z,3.80
2022-08-05T20:21:43.428Z,3.10
2022-08-05T20:24:11.522Z,3.38
2022-08-05T20:26:37.983Z,3.13
2022-08-05T20:29:04.494Z,3.28
2022-08-05T20:31:42.169Z,3.30
2022-08-05T20:34:17.446Z,2.45
2022-08-05T20:36:44.067Z,2.75
2022-08-05T20:39:13.277Z,3.13
2022-08-05T20:41:43.164Z,4.15
2022-08-05T20:44:19.257Z,5.15
2022-08-05T20:46:58.168Z,4.78
2022-08-05T20:49:26.130Z,5.45
2022-08-05T20:51:53.389Z,5.90
2022-08-05T20:54:20.303Z,5.25
2022-08-05T20:56:47.175Z,4.63
2022-08-05T20:59:26.708Z,4.38
2022-08-05T21:02:01.731Z,4.63
2022-08-05T21:04:30.370Z,4.55
2022-08-05T21:06:56.717Z,4.78
2022-08-05T21:09:24.431Z,5.85
2022-08-05T21:12:09.588Z,6.78
2022-08-05T21:14:37.444Z,5.30
2022-08-05T21:17:05.213Z,5.57
2022-08-05T21:19:46.826Z,5.30
2022-08-05T21:22:14.640Z,6.40
2022-08-05T21:24:44.119Z,7.47
2022-08-05T21:27:15.114Z,8.15
2022-08-05T21:29:42.936Z,5.93
2022-08-05T21:32:17.212Z,5.00
2022-08-05T21:34:56.036Z,4.70
2022-08-05T21:37:32.991Z,7.22
2022-08-05T21:39:59.308Z,5.72
2022-08-05T21:42:41.358Z,6.85
2022-08-05T21:45:11.316Z,3.88
2022-08-05T21:47:56.649Z,4.68
2022-08-05T21:50:24.395Z,4.95
2022-08-05T21:52:50.808Z,6.68
2022-08-05T21:55:21.607Z,3.90
2022-08-05T21:58:05.328Z,6.18
2022-08-05T22:00:31.838Z,3.97
2022-08-05T22:02:58.345Z,6.82
2022-08-05T22:05:27.424Z,7.38
2022-08-05T22:07:58.667Z,6.53
2022-08-05T22:10:26.937Z,7.75
2022-08-05T22:12:54.616Z,7.43
2022-08-05T22:16:00.990Z,7.57
2022-08-05T22:18:11.078Z,8.25
2022-08-05T22:20:39.155Z,7.88
2022-08-05T22:23:25.146Z,8.30
2022-08-05T22:26:30.232Z,7.60
2022-08-05T22:28:56.575Z,7.00
2022-08-05T22:31:22.906Z,6.43
2022-08-05T22:33:56.974Z,7.40
2022-08-05T22:36:26.911Z,6.88
2022-08-05T22:38:53.781Z,6.43
2022-08-05T22:42:05.727Z,6.03
2022-08-05T22:44:07.754Z,4.63
2022-08-05T22:46:34.165Z,4.85
2022-08-05T22:49:07.084Z,6.88
2022-08-05T22:52:05.453Z,5.78
2022-08-05T22:54:25.224Z,5.20
2022-08-05T22:56:54.149Z,5.35
2022-08-05T22:59:45.331Z,4.25
2022-08-05T23:02:08.163Z,4.57
2022-08-05T23:04:34.741Z,4.25
2022-08-05T23:07:01.294Z,4.63
2022-08-05T23:09:58.171Z,5.93
2022-08-05T23:12:14.127Z,4.25
2022-08-05T23:14:40.484Z,3.78
2022-08-05T23:17:33.059Z,4.15
2022-08-05T23:20:04.818Z,3.92
2022-08-05T23:22:31.797Z,3.33
2022-08-05T23:24:59.823Z,3.00
2022-08-05T23:27:28.801Z,3.65
2022-08-05T23:29:57.915Z,3.47
2022-08-05T23:32:24.597Z,3.38
2022-08-05T23:34:53.549Z,3.28
2022-08-05T23:37:19.857Z,2.72
2022-08-05T23:39:54.491Z,3.60
2022-08-05T23:42:23.489Z,3.95
2022-08-05T23:44:55.470Z,3.07
2022-08-05T23:47:21.765Z,3.15
2022-08-05T23:49:52.012Z,3.08
2022-08-05T23:52:31.985Z,3.55
2022-08-05T23:55:02.261Z,3.28
2022-08-05T23:57:31.720Z,3.70
